Latest Weather Observations for Lord Howe Island Windy Point

IDN60801

Issued at 4:05 pm EST Thursday 21 August 2014 (issued every 30 minutes, with the page automatically refreshed every 10 minutes)

About weather observations | Map of weather stations | Latest weather observations for NSW | Other Formats
Station Details ID: 200715 Name: LORD HOWE ISLAND WINDY POINT Lat: -31.54 Lon: 159.07 Height: 4.0 m
Data from the previous 72 hours. | See also: Recent months for locations in New South Wales
Date/Time
EST
Temp
°C
App
Temp
°C
Dew
Point
Rel
Hum
%
Delta-T
°C
Wind Press
QNH
hPa
Press
MSL
hPa
Rain
since 9 am
mm
Dir
 
Spd
km/h
Gust
km/h
Spd
kts
Gust
kts
21/04:00pm - - - - - ESE 19 28 10 15 - - -
21/03:30pm - - - - - ESE 19 33 10 18 - - -
21/03:00pm - - - - - SE 15 26 8 14 - - -
21/02:30pm - - - - - ESE 22 44 12 24 - - -
21/02:00pm - - - - - SSE 17 22 9 12 - - -
21/01:30pm - - - - - WSW 17 43 9 23 - - -
21/01:00pm - - - - - N 7 9 4 5 - - -
21/12:30pm - - - - - SSE 15 41 8 22 - - -
21/12:00pm - - - - - S 19 43 10 23 - - -
21/11:30am - - - - - SW 17 44 9 24 - - -
21/11:00am - - - - - E 17 24 9 13 - - -
21/10:48am - - - - - ESE 28 48 15 26 - - -
21/10:30am - - - - - ESE 24 41 13 22 - - -
21/10:21am - - - - - ESE 28 46 15 25 - - -
21/10:00am - - - - - ESE 24 37 13 20 - - -
21/09:30am - - - - - ESE 28 35 15 19 - - -
21/09:00am - - - - - ESE 26 43 14 23 - - -
21/08:30am - - - - - ESE 22 35 12 19 - - -
21/08:00am - - - - - SSE 9 19 5 10 - - -
21/07:30am - - - - - SE 13 20 7 11 - - -
21/07:00am - - - - - SE 17 26 9 14 - - -
21/06:30am - - - - - SE 20 30 11 16 - - -
21/06:00am - - - - - ESE 15 22 8 12 - - -
21/05:30am - - - - - W 7 11 4 6 - - -
21/05:00am - - - - - SE 20 35 11 19 - - -
21/04:30am - - - - - WSW 17 32 9 17 - - -
21/04:00am - - - - - ESE 11 24 6 13 - - -
21/03:30am - - - - - S 13 17 7 9 - - -
21/03:00am - - - - - ESE 15 28 8 15 - - -
21/02:30am - - - - - ESE 22 37 12 20 - - -
21/02:00am - - - - - SE 15 33 8 18 - - -
21/01:30am - - - - - SE 15 32 8 17 - - -
21/01:00am - - - - - SE 20 32 11 17 - - -
21/12:30am - - - - - SE 20 33 11 18 - - -
21/12:00am - - - - - SE 17 30 9 16 - - -
 
Date/Time
EST
Temp
°C
App
Temp
°C
Dew
Point
Rel
Hum
%
Delta-T
°C
Wind Press
QNH
hPa
Press
MSL
hPa
Rain
since 9 am
mm
Dir
 
Spd
km/h
Gust
km/h
Spd
kts
Gust
kts
20/11:30pm - - - - - SSE 17 24 9 13 - - -
20/11:00pm - - - - - ESE 13 20 7 11 - - -
20/10:30pm - - - - - E 9 17 5 9 - - -
20/10:12pm - - - - - ESE 17 22 9 12 - - -
20/10:07pm - - - - - E 37 57 20 31 - - -
20/10:06pm - - - - - E 35 52 19 28 - - -
20/10:00pm - - - - - ESE 19 24 10 13 - - -
20/09:30pm - - - - - SSW 17 32 9 17 - - -
20/09:00pm - - - - - S 22 46 12 25 - - -
20/08:34pm - - - - - SW 32 59 17 32 - - -
20/08:30pm - - - - - S 9 17 5 9 - - -
20/08:13pm - - - - - S 32 54 17 29 - - -
20/08:12pm - - - - - S 37 54 20 29 - - -
20/08:00pm - - - - - S 11 28 6 15 - - -
20/07:30pm - - - - - SSW 33 56 18 30 - - -
20/07:29pm - - - - - SSW 32 56 17 30 - - -
20/07:00pm - - - - - SSW 13 32 7 17 - - -
20/06:30pm - - - - - S 20 32 11 17 - - -
20/06:00pm - - - - - SE 13 28 7 15 - - -
20/05:30pm - - - - - ESE 13 20 7 11 - - -
20/05:00pm - - - - - SE 11 20 6 11 - - -
20/04:30pm - - - - - SSW 30 50 16 27 - - -
20/04:29pm - - - - - SSW 30 50 16 27 - - -
20/04:00pm - - - - - S 19 32 10 17 - - -
20/03:46pm - - - - - SSW 28 46 15 25 - - -
20/03:30pm - - - - - S 17 32 9 17 - - -
20/03:21pm - - - - - SSW 28 50 15 27 - - -
20/03:00pm - - - - - S 24 41 13 22 - - -
20/02:30pm - - - - - S 30 61 16 33 - - -
20/02:26pm - - - - - S 28 61 15 33 - - -
20/02:00pm - - - - - ESE 17 30 9 16 - - -
20/01:47pm - - - - - S 28 48 15 26 - - -
20/01:30pm - - - - - S 22 37 12 20 - - -
20/01:00pm - - - - - S 22 39 12 21 - - -
20/12:30pm - - - - - S 22 39 12 21 - - -
20/12:02pm - - - - - SSE 28 46 15 25 - - -
20/12:00pm - - - - - S 39 46 21 25 - - -
20/11:30am - - - - - S 32 46 17 25 - - -
20/11:14am - - - - - S 28 50 15 27 - - -
20/11:00am - - - - - S 22 35 12 19 - - -
20/10:30am - - - - - S 24 32 13 17 - - -
20/10:00am - - - - - S 19 28 10 15 - - -
20/09:30am - - - - - S 24 35 13 19 - - -
20/09:00am - - - - - S 22 33 12 18 - - -
20/08:30am - - - - - S 22 33 12 18 - - -
20/08:00am - - - - - S 32 37 17 20 - - -
20/07:30am - - - - - SW 32 35 17 19 - - -
20/07:00am - - - - - SSW 32 39 17 21 - - -
20/06:30am - - - - - SW 32 37 17 20 - - -
20/06:00am - - - - - SW 32 39 17 21 - - -
20/05:30am - - - - - SW 32 35 17 19 - - -
20/05:00am - - - - - SSW 30 35 16 19 - - -
20/04:30am - - - - - SW 32 39 17 21 - - -
20/04:00am - - - - - SW 30 35 16 19 - - -
20/03:30am - - - - - SW 32 37 17 20 - - -
20/03:00am - - - - - SW 30 33 16 18 - - -
20/02:30am - - - - - SW 30 33 16 18 - - -
20/02:00am - - - - - SW 26 32 14 17 - - -
20/01:30am - - - - - SW 26 30 14 16 - - -
20/01:00am - - - - - SW 28 32 15 17 - - -
20/12:30am - - - - - SSW 26 30 14 16 - - -
20/12:00am - - - - - SW 28 33 15 18 - - -
 
Date/Time
EST
Temp
°C
App
Temp
°C
Dew
Point
Rel
Hum
%
Delta-T
°C
Wind Press
QNH
hPa
Press
MSL
hPa
Rain
since 9 am
mm
Dir
 
Spd
km/h
Gust
km/h
Spd
kts
Gust
kts
19/11:30pm - - - - - SW 28 33 15 18 - - -
19/11:00pm - - - - - SW 24 30 13 16 - - -
19/10:30pm - - - - - SW 26 32 14 17 - - -
19/10:00pm - - - - - SW 28 32 15 17 - - -
19/09:30pm - - - - - SW 28 32 15 17 - - -
19/09:00pm - - - - - SW 28 33 15 18 - - -
19/08:30pm - - - - - SW 30 35 16 19 - - -
19/08:00pm - - - - - SW 32 35 17 19 - - -
19/07:30pm - - - - - WSW 32 37 17 20 - - -
19/07:00pm - - - - - SW 28 32 15 17 - - -
19/06:30pm - - - - - W 32 35 17 19 - - -
19/06:00pm - - - - - W 32 37 17 20 - - -
19/05:30pm - - - - - WSW 32 37 17 20 - - -
19/05:00pm - - - - - WSW 30 35 16 19 - - -
19/04:30pm - - - - - WSW 30 33 16 18 - - -
19/04:00pm - - - - - WSW 30 33 16 18 - - -
19/03:30pm - - - - - WSW 32 37 17 20 - - -
19/03:00pm - - - - - WSW 30 35 16 19 - - -
19/02:30pm - - - - - WSW 32 39 17 21 - - -
19/02:00pm - - - - - SW 30 35 16 19 - - -
19/01:30pm - - - - - WSW 30 37 16 20 - - -
19/01:00pm - - - - - WSW 32 37 17 20 - - -
19/12:30pm - - - - - WSW 33 39 18 21 - - -
19/12:00pm - - - - - W 30 39 16 21 - - -
19/11:30am - - - - - WSW 30 35 16 19 - - -
19/11:00am - - - - - W 28 33 15 18 - - -
19/10:30am - - - - - WSW 22 26 12 14 - - -
19/10:00am - - - - - WSW 24 28 13 15 - - -
19/09:30am - - - - - W 24 30 13 16 - - -
19/09:00am - - - - - W 24 30 13 16 - - -
19/08:30am - - - - - WNW 20 28 11 15 - - -
19/08:00am - - - - - NW 17 22 9 12 - - -
19/07:30am - - - - - NW 19 24 10 13 - - -
19/07:00am - - - - - W 19 20 10 11 - - -
19/06:30am - - - - - W 20 24 11 13 - - -
19/06:00am - - - - - W 24 30 13 16 - - -
19/05:30am - - - - - W 28 32 15 17 - - -
19/05:00am - - - - - W 30 35 16 19 - - -
19/04:30am - - - - - W 33 41 18 22 - - -
19/04:00am - - - - - W 37 43 20 23 - - -
19/03:30am - - - - - W 37 44 20 24 - - -
19/03:00am - - - - - W 41 48 22 26 - - -
19/02:30am - - - - - WNW 32 39 17 21 - - -
19/02:00am - - - - - WNW 30 37 16 20 - - -
19/01:30am - - - - - WNW 32 37 17 20 - - -
19/01:00am - - - - - WNW 32 39 17 21 - - -
19/12:30am - - - - - W 32 39 17 21 - - -
19/12:00am - - - - - W 32 35 17 19 - - -
 
Date/Time
EST
Temp
°C
App
Temp
°C
Dew
Point
Rel
Hum
%
Delta-T
°C
Wind Press
QNH
hPa
Press
MSL
hPa
Rain
since 9 am
mm
Dir
 
Spd
km/h
Gust
km/h
Spd
kts
Gust
kts
18/11:30pm - - - - - W 33 37 18 20 - - -
18/11:00pm - - - - - W 32 39 17 21 - - -
18/10:30pm - - - - - W 39 44 21 24 - - -
18/10:28pm - - - - - W 39 44 21 24 - - -
18/10:15pm - - - - - W 61 69 33 37 - - -
18/10:13pm - - - - - W 43 67 23 36 - - -
18/10:00pm - - - - - W 37 50 20 27 - - -
18/09:30pm - - - - - WNW 32 41 17 22 - - -
18/09:00pm - - - - - WNW 32 41 17 22 - - -
18/08:30pm - - - - - WNW 32 52 17 28 - - -
18/08:29pm - - - - - WNW 33 52 18 28 - - -
18/08:00pm - - - - - W 35 46 19 25 - - -
18/07:30pm - - - - - WNW 22 28 12 15 - - -
18/07:00pm - - - - - NNW 30 50 16 27 - - -
18/06:47pm - - - - - NW 43 61 23 33 - - -
18/06:30pm - - - - - W 35 44 19 24 - - -
18/06:20pm - - - - - W 28 41 15 22 - - -
18/06:00pm - - - - - NNW 17 20 9 11 - - -
18/05:30pm - - - - - W 30 32 16 17 - - -
18/05:09pm - - - - - WNW 54 83 29 45 - - -
18/05:07pm - - - - - WNW 32 59 17 32 - - -
18/05:00pm - - - - - NW 30 43 16 23 - - -
18/04:30pm - - - - - NW 32 54 17 29 - - -

Other Formats:

Comma delimited format used in spreadsheet applications
http://www.bom.gov.au/fwo/IDN60801/IDN60801.95995.axf

JavaScript Object Notation format (JSON) in row-major order
http://www.bom.gov.au/fwo/IDN60801/IDN60801.95995.json